sensor_id;sensor_type;location;lat;lon;timestamp;P1;durP1;ratioP1;P2;durP2;ratioP2
44139;SDS011;29803;51.048;4.686;2023-07-13T00:00:12;10.93;;;2.10;;
44139;SDS011;29803;51.048;4.686;2023-07-13T00:02:45;11.57;;;2.55;;
44139;SDS011;29803;51.048;4.686;2023-07-13T00:05:15;14.40;;;2.85;;
44139;SDS011;29803;51.048;4.686;2023-07-13T00:07:46;10.43;;;2.35;;
44139;SDS011;29803;51.048;4.686;2023-07-13T00:10:16;10.45;;;2.47;;
44139;SDS011;29803;51.048;4.686;2023-07-13T00:12:47;10.40;;;2.20;;
44139;SDS011;29803;51.048;4.686;2023-07-13T00:15:18;12.57;;;2.15;;
44139;SDS011;29803;51.048;4.686;2023-07-13T00:18:05;10.15;;;2.30;;
44139;SDS011;29803;51.048;4.686;2023-07-13T00:20:35;13.48;;;2.20;;
44139;SDS011;29803;51.048;4.686;2023-07-13T00:23:05;12.00;;;2.42;;
44139;SDS011;29803;51.048;4.686;2023-07-13T00:25:35;14.25;;;2.38;;
44139;SDS011;29803;51.048;4.686;2023-07-13T00:28:06;11.38;;;2.20;;
44139;SDS011;29803;51.048;4.686;2023-07-13T00:30:36;15.13;;;1.98;;
44139;SDS011;29803;51.048;4.686;2023-07-13T00:33:07;14.23;;;2.72;;
44139;SDS011;29803;51.048;4.686;2023-07-13T00:35:37;9.15;;;2.33;;
44139;SDS011;29803;51.048;4.686;2023-07-13T00:38:09;6.93;;;1.95;;
44139;SDS011;29803;51.048;4.686;2023-07-13T00:40:40;13.02;;;2.45;;
44139;SDS011;29803;51.048;4.686;2023-07-13T00:43:12;18.90;;;2.90;;
44139;SDS011;29803;51.048;4.686;2023-07-13T00:48:17;11.20;;;2.42;;
44139;SDS011;29803;51.048;4.686;2023-07-13T00:50:51;9.20;;;1.77;;
44139;SDS011;29803;51.048;4.686;2023-07-13T00:53:22;11.05;;;2.60;;
44139;SDS011;29803;51.048;4.686;2023-07-13T00:55:55;9.82;;;2.10;;
44139;SDS011;29803;51.048;4.686;2023-07-13T00:58:26;7.60;;;2.22;;
44139;SDS011;29803;51.048;4.686;2023-07-13T01:00:57;8.38;;;2.28;;
44139;SDS011;29803;51.048;4.686;2023-07-13T01:03:28;10.00;;;2.30;;
44139;SDS011;29803;51.048;4.686;2023-07-13T01:05:59;11.63;;;2.65;;
44139;SDS011;29803;51.048;4.686;2023-07-13T01:08:29;13.10;;;2.83;;
44139;SDS011;29803;51.048;4.686;2023-07-13T01:10:59;13.80;;;3.03;;
44139;SDS011;29803;51.048;4.686;2023-07-13T01:13:30;10.30;;;2.25;;
44139;SDS011;29803;51.048;4.686;2023-07-13T01:16:02;12.30;;;2.58;;
44139;SDS011;29803;51.048;4.686;2023-07-13T01:18:34;8.82;;;2.63;;
44139;SDS011;29803;51.048;4.686;2023-07-13T01:21:04;8.45;;;2.28;;
44139;SDS011;29803;51.048;4.686;2023-07-13T01:23:34;7.70;;;2.25;;
44139;SDS011;29803;51.048;4.686;2023-07-13T01:26:05;8.10;;;2.28;;
44139;SDS011;29803;51.048;4.686;2023-07-13T01:28:35;7.90;;;2.40;;
44139;SDS011;29803;51.048;4.686;2023-07-13T01:31:07;9.43;;;2.42;;
44139;SDS011;29803;51.048;4.686;2023-07-13T01:33:39;12.25;;;2.72;;
44139;SDS011;29803;51.048;4.686;2023-07-13T01:36:10;8.07;;;2.33;;
44139;SDS011;29803;51.048;4.686;2023-07-13T01:38:40;11.38;;;3.00;;
44139;SDS011;29803;51.048;4.686;2023-07-13T01:41:11;15.93;;;2.80;;
44139;SDS011;29803;51.048;4.686;2023-07-13T01:43:41;12.25;;;2.90;;
44139;SDS011;29803;51.048;4.686;2023-07-13T01:46:12;10.70;;;2.67;;
44139;SDS011;29803;51.048;4.686;2023-07-13T01:48:42;11.50;;;2.58;;
44139;SDS011;29803;51.048;4.686;2023-07-13T01:51:12;15.43;;;2.83;;
44139;SDS011;29803;51.048;4.686;2023-07-13T01:53:43;14.90;;;2.80;;
44139;SDS011;29803;51.048;4.686;2023-07-13T01:56:13;11.98;;;2.55;;
44139;SDS011;29803;51.048;4.686;2023-07-13T01:58:44;12.85;;;2.60;;
44139;SDS011;29803;51.048;4.686;2023-07-13T02:01:15;17.08;;;3.20;;
44139;SDS011;29803;51.048;4.686;2023-07-13T02:03:45;7.63;;;2.85;;
44139;SDS011;29803;51.048;4.686;2023-07-13T02:06:16;17.13;;;2.60;;
44139;SDS011;29803;51.048;4.686;2023-07-13T02:08:47;8.52;;;2.40;;
44139;SDS011;29803;51.048;4.686;2023-07-13T02:11:17;12.95;;;2.85;;
44139;SDS011;29803;51.048;4.686;2023-07-13T02:13:47;10.02;;;3.55;;
44139;SDS011;29803;51.048;4.686;2023-07-13T02:16:18;10.25;;;2.63;;
44139;SDS011;29803;51.048;4.686;2023-07-13T02:18:49;11.23;;;2.60;;
44139;SDS011;29803;51.048;4.686;2023-07-13T02:21:22;13.32;;;2.90;;
44139;SDS011;29803;51.048;4.686;2023-07-13T02:23:53;7.85;;;2.30;;
44139;SDS011;29803;51.048;4.686;2023-07-13T02:26:24;10.55;;;3.45;;
44139;SDS011;29803;51.048;4.686;2023-07-13T02:28:55;12.02;;;3.05;;
44139;SDS011;29803;51.048;4.686;2023-07-13T02:31:25;13.82;;;3.08;;
44139;SDS011;29803;51.048;4.686;2023-07-13T02:33:55;11.02;;;3.55;;
44139;SDS011;29803;51.048;4.686;2023-07-13T02:36:26;14.73;;;2.83;;
44139;SDS011;29803;51.048;4.686;2023-07-13T02:38:57;8.52;;;2.53;;
44139;SDS011;29803;51.048;4.686;2023-07-13T02:41:28;10.02;;;2.67;;
44139;SDS011;29803;51.048;4.686;2023-07-13T02:43:58;14.75;;;3.17;;
44139;SDS011;29803;51.048;4.686;2023-07-13T02:46:34;14.75;;;2.47;;
44139;SDS011;29803;51.048;4.686;2023-07-13T02:49:05;12.52;;;3.35;;
44139;SDS011;29803;51.048;4.686;2023-07-13T02:51:35;10.75;;;2.85;;
44139;SDS011;29803;51.048;4.686;2023-07-13T02:54:05;13.18;;;3.70;;
44139;SDS011;29803;51.048;4.686;2023-07-13T02:56:38;11.65;;;2.75;;
44139;SDS011;29803;51.048;4.686;2023-07-13T02:59:09;11.80;;;3.40;;
44139;SDS011;29803;51.048;4.686;2023-07-13T03:01:39;14.32;;;2.75;;
44139;SDS011;29803;51.048;4.686;2023-07-13T03:04:10;13.85;;;3.20;;
44139;SDS011;29803;51.048;4.686;2023-07-13T03:06:42;8.88;;;2.83;;
44139;SDS011;29803;51.048;4.686;2023-07-13T03:09:12;12.70;;;2.97;;
44139;SDS011;29803;51.048;4.686;2023-07-13T03:11:43;12.93;;;2.58;;
44139;SDS011;29803;51.048;4.686;2023-07-13T03:14:13;17.13;;;3.08;;
44139;SDS011;29803;51.048;4.686;2023-07-13T03:16:43;21.45;;;3.97;;
44139;SDS011;29803;51.048;4.686;2023-07-13T03:19:13;15.38;;;2.70;;
44139;SDS011;29803;51.048;4.686;2023-07-13T03:21:44;10.65;;;3.00;;
44139;SDS011;29803;51.048;4.686;2023-07-13T03:24:14;11.38;;;3.05;;
44139;SDS011;29803;51.048;4.686;2023-07-13T03:26:45;10.07;;;3.08;;
44139;SDS011;29803;51.048;4.686;2023-07-13T03:29:15;12.73;;;3.40;;
44139;SDS011;29803;51.048;4.686;2023-07-13T03:31:46;16.00;;;3.22;;
44139;SDS011;29803;51.048;4.686;2023-07-13T03:34:16;7.30;;;2.80;;
44139;SDS011;29803;51.048;4.686;2023-07-13T03:36:46;18.60;;;4.18;;
44139;SDS011;29803;51.048;4.686;2023-07-13T03:39:16;17.95;;;2.92;;
44139;SDS011;29803;51.048;4.686;2023-07-13T03:41:47;18.08;;;3.55;;
44139;SDS011;29803;51.048;4.686;2023-07-13T03:44:17;22.05;;;3.10;;
44139;SDS011;29803;51.048;4.686;2023-07-13T03:46:48;16.70;;;3.80;;
44139;SDS011;29803;51.048;4.686;2023-07-13T03:49:18;15.18;;;2.70;;
44139;SDS011;29803;51.048;4.686;2023-07-13T03:51:48;17.45;;;3.55;;
44139;SDS011;29803;51.048;4.686;2023-07-13T03:54:19;25.67;;;4.82;;
44139;SDS011;29803;51.048;4.686;2023-07-13T03:56:49;13.68;;;2.90;;
44139;SDS011;29803;51.048;4.686;2023-07-13T03:59:19;17.98;;;3.75;;
44139;SDS011;29803;51.048;4.686;2023-07-13T04:01:50;14.90;;;3.60;;
44139;SDS011;29803;51.048;4.686;2023-07-13T04:04:20;16.25;;;3.40;;
44139;SDS011;29803;51.048;4.686;2023-07-13T04:06:50;27.40;;;4.03;;
44139;SDS011;29803;51.048;4.686;2023-07-13T04:09:23;16.02;;;4.22;;
44139;SDS011;29803;51.048;4.686;2023-07-13T04:11:53;18.95;;;3.30;;
44139;SDS011;29803;51.048;4.686;2023-07-13T04:14:23;19.85;;;4.03;;
44139;SDS011;29803;51.048;4.686;2023-07-13T04:16:54;17.30;;;3.70;;
44139;SDS011;29803;51.048;4.686;2023-07-13T04:19:24;19.55;;;4.68;;
44139;SDS011;29803;51.048;4.686;2023-07-13T04:21:55;23.58;;;3.53;;
44139;SDS011;29803;51.048;4.686;2023-07-13T04:24:25;24.33;;;3.50;;
44139;SDS011;29803;51.048;4.686;2023-07-13T04:26:56;18.55;;;4.13;;
44139;SDS011;29803;51.048;4.686;2023-07-13T04:29:29;13.82;;;3.47;;
44139;SDS011;29803;51.048;4.686;2023-07-13T04:32:00;12.73;;;4.25;;
44139;SDS011;29803;51.048;4.686;2023-07-13T04:34:30;15.18;;;3.92;;
44139;SDS011;29803;51.048;4.686;2023-07-13T04:37:01;25.10;;;3.85;;
44139;SDS011;29803;51.048;4.686;2023-07-13T04:39:31;16.60;;;4.13;;
44139;SDS011;29803;51.048;4.686;2023-07-13T04:42:01;15.60;;;3.83;;
44139;SDS011;29803;51.048;4.686;2023-07-13T04:44:32;20.08;;;3.60;;
44139;SDS011;29803;51.048;4.686;2023-07-13T04:47:02;11.98;;;3.97;;
44139;SDS011;29803;51.048;4.686;2023-07-13T04:49:32;10.02;;;3.95;;
44139;SDS011;29803;51.048;4.686;2023-07-13T04:52:03;18.80;;;3.55;;
44139;SDS011;29803;51.048;4.686;2023-07-13T04:54:34;15.30;;;3.63;;
44139;SDS011;29803;51.048;4.686;2023-07-13T04:57:04;16.70;;;4.13;;
44139;SDS011;29803;51.048;4.686;2023-07-13T04:59:36;11.40;;;3.80;;
44139;SDS011;29803;51.048;4.686;2023-07-13T05:02:06;21.98;;;4.53;;
44139;SDS011;29803;51.048;4.686;2023-07-13T05:04:37;16.85;;;3.38;;
44139;SDS011;29803;51.048;4.686;2023-07-13T05:07:07;19.23;;;4.45;;
44139;SDS011;29803;51.048;4.686;2023-07-13T05:09:37;18.35;;;4.13;;
44139;SDS011;29803;51.048;4.686;2023-07-13T05:12:09;23.92;;;4.15;;
44139;SDS011;29803;51.048;4.686;2023-07-13T05:14:39;19.95;;;4.43;;
44139;SDS011;29803;51.048;4.686;2023-07-13T05:17:10;19.65;;;3.75;;
44139;SDS011;29803;51.048;4.686;2023-07-13T05:19:40;16.27;;;3.70;;
44139;SDS011;29803;51.048;4.686;2023-07-13T05:22:10;19.00;;;3.85;;
44139;SDS011;29803;51.048;4.686;2023-07-13T05:24:41;21.02;;;3.80;;
44139;SDS011;29803;51.048;4.686;2023-07-13T05:27:11;15.68;;;3.67;;
44139;SDS011;29803;51.048;4.686;2023-07-13T05:29:41;16.30;;;4.35;;
44139;SDS011;29803;51.048;4.686;2023-07-13T05:32:11;11.45;;;3.78;;
44139;SDS011;29803;51.048;4.686;2023-07-13T05:34:42;19.83;;;4.18;;
44139;SDS011;29803;51.048;4.686;2023-07-13T05:37:12;18.33;;;4.40;;
44139;SDS011;29803;51.048;4.686;2023-07-13T05:39:42;19.73;;;3.80;;
44139;SDS011;29803;51.048;4.686;2023-07-13T05:42:13;17.42;;;3.67;;
44139;SDS011;29803;51.048;4.686;2023-07-13T05:44:43;19.27;;;3.70;;
44139;SDS011;29803;51.048;4.686;2023-07-13T05:47:13;18.45;;;4.30;;
44139;SDS011;29803;51.048;4.686;2023-07-13T05:49:44;15.40;;;3.90;;
44139;SDS011;29803;51.048;4.686;2023-07-13T05:52:15;15.32;;;3.75;;
44139;SDS011;29803;51.048;4.686;2023-07-13T05:54:45;18.65;;;3.90;;
44139;SDS011;29803;51.048;4.686;2023-07-13T05:57:15;15.48;;;3.35;;
44139;SDS011;29803;51.048;4.686;2023-07-13T05:59:46;15.68;;;4.82;;
44139;SDS011;29803;51.048;4.686;2023-07-13T06:02:16;21.38;;;4.20;;
44139;SDS011;29803;51.048;4.686;2023-07-13T06:04:46;15.77;;;3.92;;
44139;SDS011;29803;51.048;4.686;2023-07-13T06:07:17;14.90;;;3.83;;
44139;SDS011;29803;51.048;4.686;2023-07-13T06:09:47;18.58;;;3.92;;
44139;SDS011;29803;51.048;4.686;2023-07-13T06:12:17;22.15;;;3.95;;
44139;SDS011;29803;51.048;4.686;2023-07-13T06:14:47;30.17;;;5.07;;
44139;SDS011;29803;51.048;4.686;2023-07-13T06:17:18;20.17;;;4.68;;
44139;SDS011;29803;51.048;4.686;2023-07-13T06:19:48;21.15;;;4.38;;
44139;SDS011;29803;51.048;4.686;2023-07-13T06:22:18;24.02;;;4.60;;
44139;SDS011;29803;51.048;4.686;2023-07-13T06:24:49;32.28;;;4.22;;
44139;SDS011;29803;51.048;4.686;2023-07-13T06:27:19;20.98;;;4.60;;
44139;SDS011;29803;51.048;4.686;2023-07-13T06:29:49;16.40;;;4.55;;
44139;SDS011;29803;51.048;4.686;2023-07-13T06:32:20;14.73;;;4.13;;
44139;SDS011;29803;51.048;4.686;2023-07-13T06:34:50;22.60;;;4.95;;
44139;SDS011;29803;51.048;4.686;2023-07-13T06:37:21;13.18;;;4.25;;
44139;SDS011;29803;51.048;4.686;2023-07-13T06:39:52;12.23;;;3.80;;
44139;SDS011;29803;51.048;4.686;2023-07-13T06:42:22;15.00;;;4.03;;
44139;SDS011;29803;51.048;4.686;2023-07-13T06:44:52;24.38;;;4.38;;
44139;SDS011;29803;51.048;4.686;2023-07-13T06:47:23;15.88;;;4.82;;
44139;SDS011;29803;51.048;4.686;2023-07-13T06:49:53;23.05;;;4.90;;
44139;SDS011;29803;51.048;4.686;2023-07-13T06:52:24;27.50;;;5.55;;
44139;SDS011;29803;51.048;4.686;2023-07-13T06:54:54;21.92;;;4.50;;
44139;SDS011;29803;51.048;4.686;2023-07-13T06:57:24;22.13;;;4.40;;
44139;SDS011;29803;51.048;4.686;2023-07-13T06:59:55;15.93;;;4.18;;
44139;SDS011;29803;51.048;4.686;2023-07-13T07:02:25;20.40;;;4.55;;
44139;SDS011;29803;51.048;4.686;2023-07-13T07:04:55;22.33;;;4.80;;
44139;SDS011;29803;51.048;4.686;2023-07-13T07:07:26;25.33;;;4.07;;
44139;SDS011;29803;51.048;4.686;2023-07-13T07:09:56;16.25;;;4.10;;
44139;SDS011;29803;51.048;4.686;2023-07-13T07:12:27;13.80;;;3.53;;
44139;SDS011;29803;51.048;4.686;2023-07-13T07:14:57;17.40;;;3.67;;
44139;SDS011;29803;51.048;4.686;2023-07-13T07:17:28;14.30;;;3.88;;
44139;SDS011;29803;51.048;4.686;2023-07-13T07:19:58;18.65;;;4.07;;
44139;SDS011;29803;51.048;4.686;2023-07-13T07:22:29;24.33;;;4.60;;
44139;SDS011;29803;51.048;4.686;2023-07-13T07:25:00;15.27;;;3.30;;
44139;SDS011;29803;51.048;4.686;2023-07-13T07:27:30;15.40;;;3.35;;
44139;SDS011;29803;51.048;4.686;2023-07-13T07:30:00;18.25;;;3.90;;
44139;SDS011;29803;51.048;4.686;2023-07-13T07:32:31;13.05;;;4.00;;
44139;SDS011;29803;51.048;4.686;2023-07-13T07:35:01;13.70;;;4.13;;
44139;SDS011;29803;51.048;4.686;2023-07-13T07:37:31;19.88;;;4.22;;
44139;SDS011;29803;51.048;4.686;2023-07-13T07:40:02;15.25;;;4.03;;
44139;SDS011;29803;51.048;4.686;2023-07-13T07:42:32;19.95;;;4.05;;
44139;SDS011;29803;51.048;4.686;2023-07-13T07:45:03;14.35;;;2.60;;
44139;SDS011;29803;51.048;4.686;2023-07-13T07:47:33;15.05;;;3.42;;
44139;SDS011;29803;51.048;4.686;2023-07-13T07:50:03;18.60;;;4.38;;
44139;SDS011;29803;51.048;4.686;2023-07-13T07:52:34;13.52;;;3.58;;
44139;SDS011;29803;51.048;4.686;2023-07-13T07:55:05;14.05;;;3.42;;
44139;SDS011;29803;51.048;4.686;2023-07-13T07:57:36;13.27;;;3.33;;
44139;SDS011;29803;51.048;4.686;2023-07-13T08:00:06;11.35;;;3.40;;
44139;SDS011;29803;51.048;4.686;2023-07-13T08:02:37;13.77;;;2.92;;
44139;SDS011;29803;51.048;4.686;2023-07-13T08:05:08;13.07;;;3.13;;
44139;SDS011;29803;51.048;4.686;2023-07-13T08:07:39;15.30;;;2.88;;
44139;SDS011;29803;51.048;4.686;2023-07-13T08:10:09;14.43;;;2.97;;
44139;SDS011;29803;51.048;4.686;2023-07-13T08:12:40;11.35;;;3.00;;
44139;SDS011;29803;51.048;4.686;2023-07-13T08:15:11;15.80;;;3.30;;
44139;SDS011;29803;51.048;4.686;2023-07-13T08:17:42;17.67;;;3.00;;
44139;SDS011;29803;51.048;4.686;2023-07-13T08:20:12;8.27;;;2.97;;
44139;SDS011;29803;51.048;4.686;2023-07-13T08:22:42;12.60;;;2.72;;
44139;SDS011;29803;51.048;4.686;2023-07-13T08:25:13;15.93;;;3.22;;
44139;SDS011;29803;51.048;4.686;2023-07-13T08:27:43;14.50;;;2.90;;
44139;SDS011;29803;51.048;4.686;2023-07-13T08:30:13;12.57;;;2.95;;
44139;SDS011;29803;51.048;4.686;2023-07-13T08:32:44;17.10;;;2.97;;
44139;SDS011;29803;51.048;4.686;2023-07-13T08:35:14;8.75;;;3.67;;
44139;SDS011;29803;51.048;4.686;2023-07-13T08:37:45;17.45;;;3.15;;
44139;SDS011;29803;51.048;4.686;2023-07-13T08:40:16;10.07;;;2.78;;
44139;SDS011;29803;51.048;4.686;2023-07-13T08:42:50;17.30;;;2.92;;
44139;SDS011;29803;51.048;4.686;2023-07-13T08:47:54;12.05;;;2.90;;
44139;SDS011;29803;51.048;4.686;2023-07-13T08:50:28;12.23;;;2.60;;
44139;SDS011;29803;51.048;4.686;2023-07-13T08:53:01;18.30;;;3.90;;
44139;SDS011;29803;51.048;4.686;2023-07-13T08:55:33;12.75;;;3.40;;
44139;SDS011;29803;51.048;4.686;2023-07-13T08:58:09;11.32;;;3.05;;
44139;SDS011;29803;51.048;4.686;2023-07-13T09:03:30;9.10;;;2.33;;
44139;SDS011;29803;51.048;4.686;2023-07-13T09:06:06;8.85;;;2.78;;
44139;SDS011;29803;51.048;4.686;2023-07-13T09:08:52;12.52;;;2.90;;
44139;SDS011;29803;51.048;4.686;2023-07-13T09:14:01;10.68;;;2.92;;
44139;SDS011;29803;51.048;4.686;2023-07-13T09:16:33;9.63;;;2.78;;
44139;SDS011;29803;51.048;4.686;2023-07-13T09:19:05;10.38;;;2.85;;
44139;SDS011;29803;51.048;4.686;2023-07-13T09:21:37;10.90;;;2.80;;
44139;SDS011;29803;51.048;4.686;2023-07-13T09:26:58;8.65;;;2.53;;
44139;SDS011;29803;51.048;4.686;2023-07-13T09:29:30;14.57;;;3.03;;
44139;SDS011;29803;51.048;4.686;2023-07-13T09:32:04;9.40;;;2.42;;
44139;SDS011;29803;51.048;4.686;2023-07-13T09:34:36;10.27;;;2.47;;
44139;SDS011;29803;51.048;4.686;2023-07-13T09:37:06;7.90;;;2.30;;
44139;SDS011;29803;51.048;4.686;2023-07-13T09:39:37;7.95;;;2.03;;
44139;SDS011;29803;51.048;4.686;2023-07-13T09:42:21;6.70;;;2.53;;
44139;SDS011;29803;51.048;4.686;2023-07-13T09:44:53;8.70;;;2.72;;
44139;SDS011;29803;51.048;4.686;2023-07-13T09:53:00;8.82;;;2.47;;
44139;SDS011;29803;51.048;4.686;2023-07-13T09:55:32;13.30;;;2.38;;
44139;SDS011;29803;51.048;4.686;2023-07-13T09:58:08;15.05;;;2.47;;
44139;SDS011;29803;51.048;4.686;2023-07-13T10:00:40;4.93;;;1.88;;
44139;SDS011;29803;51.048;4.686;2023-07-13T10:06:10;7.28;;;2.63;;
44139;SDS011;29803;51.048;4.686;2023-07-13T10:08:41;6.82;;;2.30;;
44139;SDS011;29803;51.048;4.686;2023-07-13T10:11:13;12.10;;;2.45;;
44139;SDS011;29803;51.048;4.686;2023-07-13T10:16:18;6.15;;;2.08;;
44139;SDS011;29803;51.048;4.686;2023-07-13T10:18:51;6.47;;;2.00;;
44139;SDS011;29803;51.048;4.686;2023-07-13T10:21:23;10.18;;;2.40;;
44139;SDS011;29803;51.048;4.686;2023-07-13T10:26:47;9.20;;;2.00;;
44139;SDS011;29803;51.048;4.686;2023-07-13T10:29:18;8.30;;;2.10;;
44139;SDS011;29803;51.048;4.686;2023-07-13T10:31:51;4.38;;;1.60;;
44139;SDS011;29803;51.048;4.686;2023-07-13T10:34:21;7.18;;;2.45;;
44139;SDS011;29803;51.048;4.686;2023-07-13T10:36:53;7.47;;;2.28;;
44139;SDS011;29803;51.048;4.686;2023-07-13T10:39:24;8.23;;;2.80;;
44139;SDS011;29803;51.048;4.686;2023-07-13T10:41:58;7.45;;;2.00;;
44139;SDS011;29803;51.048;4.686;2023-07-13T10:44:30;9.00;;;2.40;;
44139;SDS011;29803;51.048;4.686;2023-07-13T10:47:02;8.02;;;2.38;;
44139;SDS011;29803;51.048;4.686;2023-07-13T10:49:34;8.75;;;2.22;;
44139;SDS011;29803;51.048;4.686;2023-07-13T10:52:05;6.07;;;1.77;;
44139;SDS011;29803;51.048;4.686;2023-07-13T10:54:35;9.82;;;2.28;;
44139;SDS011;29803;51.048;4.686;2023-07-13T10:59:39;10.13;;;2.70;;
44139;SDS011;29803;51.048;4.686;2023-07-13T11:02:12;7.57;;;2.63;;
44139;SDS011;29803;51.048;4.686;2023-07-13T11:04:46;13.73;;;3.22;;
44139;SDS011;29803;51.048;4.686;2023-07-13T11:09:50;7.45;;;2.10;;
44139;SDS011;29803;51.048;4.686;2023-07-13T11:22:42;4.13;;;1.65;;
44139;SDS011;29803;51.048;4.686;2023-07-13T11:30:49;7.10;;;2.38;;
44139;SDS011;29803;51.048;4.686;2023-07-13T11:33:21;11.63;;;2.70;;
44139;SDS011;29803;51.048;4.686;2023-07-13T11:38:42;4.05;;;1.80;;
44139;SDS011;29803;51.048;4.686;2023-07-13T11:46:49;9.18;;;2.33;;
44139;SDS011;29803;51.048;4.686;2023-07-13T11:49:22;4.72;;;1.98;;
44139;SDS011;29803;51.048;4.686;2023-07-13T11:51:53;10.68;;;2.17;;
44139;SDS011;29803;51.048;4.686;2023-07-13T11:54:27;5.07;;;2.10;;
44139;SDS011;29803;51.048;4.686;2023-07-13T11:56:58;3.88;;;2.03;;
44139;SDS011;29803;51.048;4.686;2023-07-13T11:59:31;10.55;;;2.33;;
44139;SDS011;29803;51.048;4.686;2023-07-13T12:02:08;8.55;;;2.40;;
44139;SDS011;29803;51.048;4.686;2023-07-13T12:04:43;5.30;;;2.10;;
44139;SDS011;29803;51.048;4.686;2023-07-13T12:07:15;7.85;;;2.00;;
44139;SDS011;29803;51.048;4.686;2023-07-13T12:09:46;6.05;;;1.88;;
44139;SDS011;29803;51.048;4.686;2023-07-13T12:12:18;10.15;;;2.17;;
44139;SDS011;29803;51.048;4.686;2023-07-13T12:17:37;21.38;;;3.72;;
44139;SDS011;29803;51.048;4.686;2023-07-13T12:22:57;22.65;;;4.57;;
44139;SDS011;29803;51.048;4.686;2023-07-13T12:25:27;12.73;;;4.38;;
44139;SDS011;29803;51.048;4.686;2023-07-13T12:27:57;10.38;;;3.25;;
44139;SDS011;29803;51.048;4.686;2023-07-13T12:30:29;15.32;;;4.47;;
44139;SDS011;29803;51.048;4.686;2023-07-13T12:33:02;16.65;;;4.35;;
44139;SDS011;29803;51.048;4.686;2023-07-13T12:35:38;9.02;;;3.40;;
44139;SDS011;29803;51.048;4.686;2023-07-13T12:38:10;8.45;;;3.38;;
44139;SDS011;29803;51.048;4.686;2023-07-13T12:40:41;7.35;;;3.70;;
44139;SDS011;29803;51.048;4.686;2023-07-13T12:43:12;9.80;;;4.10;;
44139;SDS011;29803;51.048;4.686;2023-07-13T12:48:38;9.50;;;4.45;;
44139;SDS011;29803;51.048;4.686;2023-07-13T12:51:10;6.15;;;4.03;;
44139;SDS011;29803;51.048;4.686;2023-07-13T12:53:42;11.07;;;3.65;;
44139;SDS011;29803;51.048;4.686;2023-07-13T12:56:16;9.35;;;4.20;;
44139;SDS011;29803;51.048;4.686;2023-07-13T12:58:47;10.45;;;4.32;;
44139;SDS011;29803;51.048;4.686;2023-07-13T13:01:26;10.07;;;3.80;;
44139;SDS011;29803;51.048;4.686;2023-07-13T13:03:57;8.18;;;3.95;;
44139;SDS011;29803;51.048;4.686;2023-07-13T13:06:30;7.57;;;2.70;;
44139;SDS011;29803;51.048;4.686;2023-07-13T13:09:01;8.18;;;2.70;;
44139;SDS011;29803;51.048;4.686;2023-07-13T13:11:31;7.07;;;2.88;;
44139;SDS011;29803;51.048;4.686;2023-07-13T13:14:01;4.88;;;2.67;;
44139;SDS011;29803;51.048;4.686;2023-07-13T13:16:37;6.50;;;2.63;;
44139;SDS011;29803;51.048;4.686;2023-07-13T13:19:13;5.80;;;2.38;;
44139;SDS011;29803;51.048;4.686;2023-07-13T13:21:44;5.35;;;2.35;;
44139;SDS011;29803;51.048;4.686;2023-07-13T13:24:16;6.85;;;3.00;;
44139;SDS011;29803;51.048;4.686;2023-07-13T13:26:47;5.53;;;2.55;;
44139;SDS011;29803;51.048;4.686;2023-07-13T13:29:18;5.97;;;2.55;;
44139;SDS011;29803;51.048;4.686;2023-07-13T13:31:49;7.20;;;2.50;;
44139;SDS011;29803;51.048;4.686;2023-07-13T13:34:22;6.13;;;2.72;;
44139;SDS011;29803;51.048;4.686;2023-07-13T13:36:53;6.05;;;2.63;;
44139;SDS011;29803;51.048;4.686;2023-07-13T13:39:25;6.15;;;2.70;;
44139;SDS011;29803;51.048;4.686;2023-07-13T13:41:58;8.60;;;2.83;;
44139;SDS011;29803;51.048;4.686;2023-07-13T13:44:28;4.85;;;2.60;;
44139;SDS011;29803;51.048;4.686;2023-07-13T13:46:58;7.00;;;2.30;;
44139;SDS011;29803;51.048;4.686;2023-07-13T13:49:29;6.63;;;2.10;;
44139;SDS011;29803;51.048;4.686;2023-07-13T13:52:00;7.00;;;2.63;;
44139;SDS011;29803;51.048;4.686;2023-07-13T13:54:30;2.83;;;2.33;;
44139;SDS011;29803;51.048;4.686;2023-07-13T13:57:00;6.45;;;2.40;;
44139;SDS011;29803;51.048;4.686;2023-07-13T13:59:31;5.00;;;2.38;;
44139;SDS011;29803;51.048;4.686;2023-07-13T14:02:07;5.55;;;2.45;;
44139;SDS011;29803;51.048;4.686;2023-07-13T14:04:41;9.40;;;3.28;;
44139;SDS011;29803;51.048;4.686;2023-07-13T14:07:11;4.50;;;2.42;;
44139;SDS011;29803;51.048;4.686;2023-07-13T14:09:41;5.00;;;2.58;;
44139;SDS011;29803;51.048;4.686;2023-07-13T14:12:12;6.20;;;2.55;;
44139;SDS011;29803;51.048;4.686;2023-07-13T14:14:42;6.22;;;2.58;;
44139;SDS011;29803;51.048;4.686;2023-07-13T14:20:01;7.35;;;2.40;;
44139;SDS011;29803;51.048;4.686;2023-07-13T14:22:34;3.10;;;1.95;;
44139;SDS011;29803;51.048;4.686;2023-07-13T14:25:05;9.32;;;2.55;;
44139;SDS011;29803;51.048;4.686;2023-07-13T14:27:35;6.40;;;2.08;;
44139;SDS011;29803;51.048;4.686;2023-07-13T14:32:53;7.70;;;2.35;;
44139;SDS011;29803;51.048;4.686;2023-07-13T14:35:23;7.78;;;2.45;;
44139;SDS011;29803;51.048;4.686;2023-07-13T14:37:54;4.35;;;2.05;;
44139;SDS011;29803;51.048;4.686;2023-07-13T14:40:29;3.63;;;1.83;;
44139;SDS011;29803;51.048;4.686;2023-07-13T14:45:30;11.30;;;2.40;;
44139;SDS011;29803;51.048;4.686;2023-07-13T14:48:01;8.45;;;2.50;;
44139;SDS011;29803;51.048;4.686;2023-07-13T14:50:31;7.15;;;1.98;;
44139;SDS011;29803;51.048;4.686;2023-07-13T14:53:02;9.02;;;2.30;;
44139;SDS011;29803;51.048;4.686;2023-07-13T14:55:33;5.07;;;2.50;;
44139;SDS011;29803;51.048;4.686;2023-07-13T14:58:03;6.60;;;2.17;;
44139;SDS011;29803;51.048;4.686;2023-07-13T15:00:33;8.48;;;2.17;;
44139;SDS011;29803;51.048;4.686;2023-07-13T15:03:04;7.18;;;2.47;;
44139;SDS011;29803;51.048;4.686;2023-07-13T15:05:36;6.55;;;2.25;;
44139;SDS011;29803;51.048;4.686;2023-07-13T15:08:07;5.50;;;2.65;;
44139;SDS011;29803;51.048;4.686;2023-07-13T15:10:39;5.40;;;2.33;;
44139;SDS011;29803;51.048;4.686;2023-07-13T15:15:56;5.90;;;1.92;;
44139;SDS011;29803;51.048;4.686;2023-07-13T15:18:26;8.07;;;2.33;;
44139;SDS011;29803;51.048;4.686;2023-07-13T15:20:57;5.63;;;2.00;;
44139;SDS011;29803;51.048;4.686;2023-07-13T15:23:30;6.03;;;1.70;;
44139;SDS011;29803;51.048;4.686;2023-07-13T15:26:00;7.28;;;1.98;;
44139;SDS011;29803;51.048;4.686;2023-07-13T15:28:31;6.15;;;1.70;;
44139;SDS011;29803;51.048;4.686;2023-07-13T15:31:01;5.68;;;2.10;;
44139;SDS011;29803;51.048;4.686;2023-07-13T15:33:31;7.28;;;2.15;;
44139;SDS011;29803;51.048;4.686;2023-07-13T15:36:03;5.75;;;1.88;;
44139;SDS011;29803;51.048;4.686;2023-07-13T15:38:34;6.43;;;1.98;;
44139;SDS011;29803;51.048;4.686;2023-07-13T15:41:10;4.05;;;1.88;;
44139;SDS011;29803;51.048;4.686;2023-07-13T15:43:43;8.10;;;2.50;;
44139;SDS011;29803;51.048;4.686;2023-07-13T15:46:14;7.28;;;2.33;;
44139;SDS011;29803;51.048;4.686;2023-07-13T15:48:45;4.88;;;1.80;;
44139;SDS011;29803;51.048;4.686;2023-07-13T15:54:02;5.60;;;2.03;;
44139;SDS011;29803;51.048;4.686;2023-07-13T15:56:35;4.75;;;1.70;;
44139;SDS011;29803;51.048;4.686;2023-07-13T15:59:08;4.93;;;2.03;;
44139;SDS011;29803;51.048;4.686;2023-07-13T16:01:39;3.47;;;1.77;;
44139;SDS011;29803;51.048;4.686;2023-07-13T16:04:11;5.63;;;2.05;;
44139;SDS011;29803;51.048;4.686;2023-07-13T16:06:43;10.18;;;1.90;;
44139;SDS011;29803;51.048;4.686;2023-07-13T16:09:17;7.32;;;1.98;;
44139;SDS011;29803;51.048;4.686;2023-07-13T16:11:48;5.63;;;1.73;;
44139;SDS011;29803;51.048;4.686;2023-07-13T16:14:19;8.32;;;2.35;;
44139;SDS011;29803;51.048;4.686;2023-07-13T16:16:51;2.85;;;1.50;;
44139;SDS011;29803;51.048;4.686;2023-07-13T16:19:25;7.00;;;1.80;;
44139;SDS011;29803;51.048;4.686;2023-07-13T16:21:58;5.07;;;2.10;;